sensor_id;sensor_type;location;lat;lon;timestamp;P1;durP1;ratioP1;P2;durP2;ratioP2
85188;SDS011;75559;49.132;8.922;2024-03-06T00:01:15;5.53;;;4.20;;
85188;SDS011;75559;49.132;8.922;2024-03-06T00:03:40;9.00;;;4.65;;
85188;SDS011;75559;49.132;8.922;2024-03-06T00:06:06;5.83;;;3.53;;
85188;SDS011;75559;49.132;8.922;2024-03-06T00:08:31;6.55;;;4.18;;
85188;SDS011;75559;49.132;8.922;2024-03-06T00:10:56;6.93;;;3.67;;
85188;SDS011;75559;49.132;8.922;2024-03-06T00:13:22;5.65;;;3.90;;
85188;SDS011;75559;49.132;8.922;2024-03-06T00:15:47;4.03;;;3.15;;
85188;SDS011;75559;49.132;8.922;2024-03-06T00:18:12;3.67;;;2.85;;
85188;SDS011;75559;49.132;8.922;2024-03-06T00:20:38;7.70;;;3.28;;
85188;SDS011;75559;49.132;8.922;2024-03-06T00:23:03;5.22;;;2.85;;
85188;SDS011;75559;49.132;8.922;2024-03-06T00:25:29;5.07;;;3.03;;
85188;SDS011;75559;49.132;8.922;2024-03-06T00:27:54;5.70;;;3.07;;
85188;SDS011;75559;49.132;8.922;2024-03-06T00:30:19;7.00;;;3.17;;
85188;SDS011;75559;49.132;8.922;2024-03-06T00:32:45;11.43;;;6.82;;
85188;SDS011;75559;49.132;8.922;2024-03-06T00:35:10;7.13;;;4.35;;
85188;SDS011;75559;49.132;8.922;2024-03-06T00:37:37;8.65;;;5.50;;
85188;SDS011;75559;49.132;8.922;2024-03-06T00:40:02;5.38;;;3.55;;
85188;SDS011;75559;49.132;8.922;2024-03-06T00:42:28;7.30;;;4.07;;
85188;SDS011;75559;49.132;8.922;2024-03-06T00:44:53;6.28;;;3.58;;
85188;SDS011;75559;49.132;8.922;2024-03-06T00:47:19;12.68;;;4.60;;
85188;SDS011;75559;49.132;8.922;2024-03-06T00:49:46;4.72;;;3.15;;
85188;SDS011;75559;49.132;8.922;2024-03-06T00:52:11;8.65;;;3.88;;
85188;SDS011;75559;49.132;8.922;2024-03-06T00:54:37;6.57;;;4.07;;
85188;SDS011;75559;49.132;8.922;2024-03-06T00:57:03;8.68;;;3.58;;
85188;SDS011;75559;49.132;8.922;2024-03-06T00:59:28;5.85;;;3.80;;
85188;SDS011;75559;49.132;8.922;2024-03-06T01:01:53;7.38;;;3.53;;
85188;SDS011;75559;49.132;8.922;2024-03-06T01:04:22;3.80;;;3.40;;
85188;SDS011;75559;49.132;8.922;2024-03-06T01:06:48;5.82;;;4.10;;
85188;SDS011;75559;49.132;8.922;2024-03-06T01:09:13;5.70;;;3.92;;
85188;SDS011;75559;49.132;8.922;2024-03-06T01:11:39;6.32;;;4.50;;
85188;SDS011;75559;49.132;8.922;2024-03-06T01:14:04;4.97;;;3.30;;
85188;SDS011;75559;49.132;8.922;2024-03-06T01:16:30;5.10;;;4.28;;
85188;SDS011;75559;49.132;8.922;2024-03-06T01:18:55;5.43;;;3.90;;
85188;SDS011;75559;49.132;8.922;2024-03-06T01:21:20;8.73;;;4.03;;
85188;SDS011;75559;49.132;8.922;2024-03-06T01:23:46;7.13;;;4.07;;
85188;SDS011;75559;49.132;8.922;2024-03-06T01:26:11;6.50;;;3.97;;
85188;SDS011;75559;49.132;8.922;2024-03-06T01:28:37;6.93;;;4.00;;
85188;SDS011;75559;49.132;8.922;2024-03-06T01:31:02;7.65;;;4.38;;
85188;SDS011;75559;49.132;8.922;2024-03-06T01:33:27;7.85;;;4.00;;
85188;SDS011;75559;49.132;8.922;2024-03-06T01:35:53;5.68;;;3.35;;
85188;SDS011;75559;49.132;8.922;2024-03-06T01:38:18;5.55;;;3.70;;
85188;SDS011;75559;49.132;8.922;2024-03-06T01:40:44;6.20;;;3.63;;
85188;SDS011;75559;49.132;8.922;2024-03-06T01:43:23;8.75;;;4.57;;
85188;SDS011;75559;49.132;8.922;2024-03-06T01:45:51;5.32;;;3.42;;
85188;SDS011;75559;49.132;8.922;2024-03-06T01:48:20;8.70;;;4.43;;
85188;SDS011;75559;49.132;8.922;2024-03-06T01:50:47;7.35;;;4.53;;
85188;SDS011;75559;49.132;8.922;2024-03-06T01:53:14;7.03;;;4.70;;
85188;SDS011;75559;49.132;8.922;2024-03-06T01:55:41;6.75;;;4.72;;
85188;SDS011;75559;49.132;8.922;2024-03-06T01:58:07;7.47;;;4.85;;
85188;SDS011;75559;49.132;8.922;2024-03-06T02:00:34;7.75;;;4.38;;
85188;SDS011;75559;49.132;8.922;2024-03-06T02:03:00;5.63;;;4.13;;
85188;SDS011;75559;49.132;8.922;2024-03-06T02:05:26;7.20;;;4.00;;
85188;SDS011;75559;49.132;8.922;2024-03-06T02:07:53;5.47;;;3.75;;
85188;SDS011;75559;49.132;8.922;2024-03-06T02:10:19;6.32;;;3.90;;
85188;SDS011;75559;49.132;8.922;2024-03-06T02:12:44;6.55;;;4.00;;
85188;SDS011;75559;49.132;8.922;2024-03-06T02:15:10;9.68;;;4.18;;
85188;SDS011;75559;49.132;8.922;2024-03-06T02:17:37;9.73;;;3.95;;
85188;SDS011;75559;49.132;8.922;2024-03-06T02:20:03;6.22;;;3.70;;
85188;SDS011;75559;49.132;8.922;2024-03-06T02:22:31;5.53;;;4.18;;
85188;SDS011;75559;49.132;8.922;2024-03-06T02:24:57;4.63;;;3.67;;
85188;SDS011;75559;49.132;8.922;2024-03-06T02:27:23;5.07;;;3.85;;
85188;SDS011;75559;49.132;8.922;2024-03-06T02:29:48;5.20;;;3.30;;
85188;SDS011;75559;49.132;8.922;2024-03-06T02:32:13;5.18;;;3.42;;
85188;SDS011;75559;49.132;8.922;2024-03-06T02:34:39;8.50;;;3.90;;
85188;SDS011;75559;49.132;8.922;2024-03-06T02:37:05;4.53;;;3.38;;
85188;SDS011;75559;49.132;8.922;2024-03-06T02:39:31;4.60;;;3.42;;
85188;SDS011;75559;49.132;8.922;2024-03-06T02:41:56;4.88;;;4.20;;
85188;SDS011;75559;49.132;8.922;2024-03-06T02:44:22;6.03;;;3.72;;
85188;SDS011;75559;49.132;8.922;2024-03-06T02:46:47;5.55;;;4.00;;
85188;SDS011;75559;49.132;8.922;2024-03-06T02:49:16;3.75;;;3.17;;
85188;SDS011;75559;49.132;8.922;2024-03-06T02:51:42;9.27;;;3.88;;
85188;SDS011;75559;49.132;8.922;2024-03-06T02:54:08;6.57;;;3.78;;
85188;SDS011;75559;49.132;8.922;2024-03-06T02:56:33;6.73;;;3.87;;
85188;SDS011;75559;49.132;8.922;2024-03-06T02:58:59;5.23;;;3.73;;
85188;SDS011;75559;49.132;8.922;2024-03-06T03:01:27;9.52;;;3.75;;
85188;SDS011;75559;49.132;8.922;2024-03-06T03:03:53;4.35;;;3.50;;
85188;SDS011;75559;49.132;8.922;2024-03-06T03:06:18;5.50;;;3.80;;
85188;SDS011;75559;49.132;8.922;2024-03-06T03:08:44;5.10;;;3.58;;
85188;SDS011;75559;49.132;8.922;2024-03-06T03:11:09;5.22;;;4.15;;
85188;SDS011;75559;49.132;8.922;2024-03-06T03:13:35;9.27;;;5.35;;
85188;SDS011;75559;49.132;8.922;2024-03-06T03:16:00;5.75;;;4.25;;
85188;SDS011;75559;49.132;8.922;2024-03-06T03:18:29;7.13;;;4.88;;
85188;SDS011;75559;49.132;8.922;2024-03-06T03:20:54;6.88;;;4.65;;
85188;SDS011;75559;49.132;8.922;2024-03-06T03:23:19;5.63;;;3.95;;
85188;SDS011;75559;49.132;8.922;2024-03-06T03:25:47;8.07;;;4.50;;
85188;SDS011;75559;49.132;8.922;2024-03-06T03:28:15;8.57;;;4.32;;
85188;SDS011;75559;49.132;8.922;2024-03-06T03:30:44;8.38;;;4.72;;
85188;SDS011;75559;49.132;8.922;2024-03-06T03:33:09;7.18;;;4.00;;
85188;SDS011;75559;49.132;8.922;2024-03-06T03:35:35;6.82;;;4.32;;
85188;SDS011;75559;49.132;8.922;2024-03-06T03:38:00;9.88;;;4.88;;
85188;SDS011;75559;49.132;8.922;2024-03-06T03:40:25;5.78;;;4.43;;
85188;SDS011;75559;49.132;8.922;2024-03-06T03:42:51;8.60;;;5.03;;
85188;SDS011;75559;49.132;8.922;2024-03-06T03:45:16;9.20;;;4.90;;
85188;SDS011;75559;49.132;8.922;2024-03-06T03:47:42;9.00;;;5.25;;
85188;SDS011;75559;49.132;8.922;2024-03-06T03:50:08;7.63;;;5.15;;
85188;SDS011;75559;49.132;8.922;2024-03-06T03:52:34;7.07;;;5.22;;
85188;SDS011;75559;49.132;8.922;2024-03-06T03:54:59;7.03;;;4.50;;
85188;SDS011;75559;49.132;8.922;2024-03-06T03:57:25;5.82;;;4.30;;
85188;SDS011;75559;49.132;8.922;2024-03-06T03:59:50;10.55;;;5.70;;
85188;SDS011;75559;49.132;8.922;2024-03-06T04:02:16;10.27;;;5.55;;
85188;SDS011;75559;49.132;8.922;2024-03-06T04:04:42;11.13;;;5.20;;
85188;SDS011;75559;49.132;8.922;2024-03-06T04:07:07;8.18;;;5.20;;
85188;SDS011;75559;49.132;8.922;2024-03-06T04:09:33;8.52;;;5.07;;
85188;SDS011;75559;49.132;8.922;2024-03-06T04:12:01;8.75;;;6.00;;
85188;SDS011;75559;49.132;8.922;2024-03-06T04:14:28;10.48;;;5.57;;
85188;SDS011;75559;49.132;8.922;2024-03-06T04:16:54;6.82;;;5.28;;
85188;SDS011;75559;49.132;8.922;2024-03-06T04:19:19;8.43;;;5.43;;
85188;SDS011;75559;49.132;8.922;2024-03-06T04:21:44;7.25;;;5.18;;
85188;SDS011;75559;49.132;8.922;2024-03-06T04:24:10;9.75;;;5.65;;
85188;SDS011;75559;49.132;8.922;2024-03-06T04:26:35;10.95;;;5.22;;
85188;SDS011;75559;49.132;8.922;2024-03-06T04:29:01;8.32;;;5.75;;
85188;SDS011;75559;49.132;8.922;2024-03-06T04:31:28;9.52;;;5.70;;
85188;SDS011;75559;49.132;8.922;2024-03-06T04:33:53;9.25;;;6.10;;
85188;SDS011;75559;49.132;8.922;2024-03-06T04:36:19;10.40;;;6.10;;
85188;SDS011;75559;49.132;8.922;2024-03-06T04:38:44;9.23;;;6.30;;
85188;SDS011;75559;49.132;8.922;2024-03-06T04:41:09;9.02;;;6.35;;
85188;SDS011;75559;49.132;8.922;2024-03-06T04:43:35;9.40;;;6.22;;
85188;SDS011;75559;49.132;8.922;2024-03-06T04:46:01;8.68;;;5.85;;
85188;SDS011;75559;49.132;8.922;2024-03-06T04:48:26;10.88;;;6.13;;
85188;SDS011;75559;49.132;8.922;2024-03-06T04:50:52;7.55;;;5.90;;
85188;SDS011;75559;49.132;8.922;2024-03-06T04:53:18;7.63;;;5.55;;
85188;SDS011;75559;49.132;8.922;2024-03-06T04:55:45;8.10;;;5.53;;
85188;SDS011;75559;49.132;8.922;2024-03-06T04:58:11;9.50;;;6.05;;
85188;SDS011;75559;49.132;8.922;2024-03-06T05:00:36;10.18;;;7.05;;
85188;SDS011;75559;49.132;8.922;2024-03-06T05:03:02;9.68;;;5.40;;
85188;SDS011;75559;49.132;8.922;2024-03-06T05:05:27;11.20;;;5.78;;
85188;SDS011;75559;49.132;8.922;2024-03-06T05:07:53;6.40;;;5.00;;
85188;SDS011;75559;49.132;8.922;2024-03-06T05:10:18;10.27;;;6.67;;
85188;SDS011;75559;49.132;8.922;2024-03-06T05:12:43;10.47;;;6.60;;
85188;SDS011;75559;49.132;8.922;2024-03-06T05:15:09;11.15;;;6.70;;
85188;SDS011;75559;49.132;8.922;2024-03-06T05:17:35;10.38;;;6.55;;
85188;SDS011;75559;49.132;8.922;2024-03-06T05:20:01;10.75;;;6.38;;
85188;SDS011;75559;49.132;8.922;2024-03-06T05:22:29;8.57;;;6.10;;
85188;SDS011;75559;49.132;8.922;2024-03-06T05:24:54;9.88;;;5.75;;
85188;SDS011;75559;49.132;8.922;2024-03-06T05:27:20;9.60;;;6.65;;
85188;SDS011;75559;49.132;8.922;2024-03-06T05:29:46;8.73;;;6.18;;
85188;SDS011;75559;49.132;8.922;2024-03-06T05:32:11;9.15;;;6.47;;
85188;SDS011;75559;49.132;8.922;2024-03-06T05:34:37;10.70;;;6.47;;
85188;SDS011;75559;49.132;8.922;2024-03-06T05:37:02;11.32;;;7.07;;
85188;SDS011;75559;49.132;8.922;2024-03-06T05:39:31;11.35;;;7.22;;
85188;SDS011;75559;49.132;8.922;2024-03-06T05:42:03;9.98;;;6.40;;
85188;SDS011;75559;49.132;8.922;2024-03-06T05:44:29;10.63;;;6.40;;
85188;SDS011;75559;49.132;8.922;2024-03-06T05:46:56;8.90;;;5.90;;
85188;SDS011;75559;49.132;8.922;2024-03-06T05:49:22;10.23;;;6.05;;
85188;SDS011;75559;49.132;8.922;2024-03-06T05:51:47;8.07;;;6.28;;
85188;SDS011;75559;49.132;8.922;2024-03-06T05:54:13;11.48;;;6.45;;
85188;SDS011;75559;49.132;8.922;2024-03-06T05:56:38;12.77;;;6.70;;
85188;SDS011;75559;49.132;8.922;2024-03-06T05:59:04;11.68;;;6.53;;
85188;SDS011;75559;49.132;8.922;2024-03-06T06:01:32;11.25;;;6.60;;
85188;SDS011;75559;49.132;8.922;2024-03-06T06:03:58;11.88;;;7.20;;
85188;SDS011;75559;49.132;8.922;2024-03-06T06:06:25;10.93;;;7.13;;
85188;SDS011;75559;49.132;8.922;2024-03-06T06:08:50;12.00;;;7.63;;
85188;SDS011;75559;49.132;8.922;2024-03-06T06:11:16;12.57;;;7.90;;
85188;SDS011;75559;49.132;8.922;2024-03-06T06:13:42;11.18;;;7.45;;
85188;SDS011;75559;49.132;8.922;2024-03-06T06:16:07;10.38;;;6.82;;
85188;SDS011;75559;49.132;8.922;2024-03-06T06:18:33;15.98;;;6.82;;
85188;SDS011;75559;49.132;8.922;2024-03-06T06:20:58;12.35;;;8.20;;
85188;SDS011;75559;49.132;8.922;2024-03-06T06:23:24;12.95;;;6.85;;
85188;SDS011;75559;49.132;8.922;2024-03-06T06:25:50;10.57;;;5.93;;
85188;SDS011;75559;49.132;8.922;2024-03-06T06:28:16;10.50;;;6.65;;
85188;SDS011;75559;49.132;8.922;2024-03-06T06:30:41;10.02;;;6.07;;
85188;SDS011;75559;49.132;8.922;2024-03-06T06:33:07;8.93;;;6.53;;
85188;SDS011;75559;49.132;8.922;2024-03-06T06:35:33;10.85;;;7.00;;
85188;SDS011;75559;49.132;8.922;2024-03-06T06:37:59;9.00;;;6.78;;
85188;SDS011;75559;49.132;8.922;2024-03-06T06:40:29;10.68;;;6.43;;
85188;SDS011;75559;49.132;8.922;2024-03-06T06:42:55;12.10;;;6.93;;
85188;SDS011;75559;49.132;8.922;2024-03-06T06:45:20;9.55;;;6.38;;
85188;SDS011;75559;49.132;8.922;2024-03-06T06:47:47;9.30;;;5.85;;
85188;SDS011;75559;49.132;8.922;2024-03-06T06:50:13;7.55;;;5.53;;
85188;SDS011;75559;49.132;8.922;2024-03-06T06:52:39;9.82;;;6.18;;
85188;SDS011;75559;49.132;8.922;2024-03-06T06:55:04;8.90;;;5.63;;
85188;SDS011;75559;49.132;8.922;2024-03-06T06:57:31;7.40;;;5.70;;
85188;SDS011;75559;49.132;8.922;2024-03-06T06:59:57;9.52;;;5.78;;
85188;SDS011;75559;49.132;8.922;2024-03-06T07:02:23;10.85;;;5.78;;
85188;SDS011;75559;49.132;8.922;2024-03-06T07:04:48;10.45;;;7.00;;
85188;SDS011;75559;49.132;8.922;2024-03-06T07:07:14;8.05;;;5.55;;
85188;SDS011;75559;49.132;8.922;2024-03-06T07:09:39;10.02;;;5.80;;
85188;SDS011;75559;49.132;8.922;2024-03-06T07:12:05;11.98;;;6.25;;
85188;SDS011;75559;49.132;8.922;2024-03-06T07:14:30;8.35;;;6.22;;
85188;SDS011;75559;49.132;8.922;2024-03-06T07:16:56;10.20;;;6.20;;
85188;SDS011;75559;49.132;8.922;2024-03-06T07:19:21;10.75;;;6.43;;
85188;SDS011;75559;49.132;8.922;2024-03-06T07:21:46;11.70;;;6.18;;
85188;SDS011;75559;49.132;8.922;2024-03-06T07:24:12;11.52;;;6.53;;
85188;SDS011;75559;49.132;8.922;2024-03-06T07:26:37;10.25;;;6.30;;
85188;SDS011;75559;49.132;8.922;2024-03-06T07:29:03;12.20;;;5.88;;
85188;SDS011;75559;49.132;8.922;2024-03-06T07:31:29;8.98;;;6.10;;
85188;SDS011;75559;49.132;8.922;2024-03-06T07:33:54;7.82;;;5.60;;
85188;SDS011;75559;49.132;8.922;2024-03-06T07:36:20;10.70;;;6.30;;
85188;SDS011;75559;49.132;8.922;2024-03-06T07:38:46;11.00;;;6.10;;
85188;SDS011;75559;49.132;8.922;2024-03-06T07:41:12;9.75;;;5.82;;
85188;SDS011;75559;49.132;8.922;2024-03-06T07:43:37;11.37;;;4.43;;
85188;SDS011;75559;49.132;8.922;2024-03-06T07:46:03;12.18;;;6.35;;
85188;SDS011;75559;49.132;8.922;2024-03-06T07:48:35;8.38;;;5.90;;
85188;SDS011;75559;49.132;8.922;2024-03-06T07:51:03;10.63;;;4.88;;
85188;SDS011;75559;49.132;8.922;2024-03-06T07:53:29;9.80;;;6.53;;
85188;SDS011;75559;49.132;8.922;2024-03-06T07:55:54;11.27;;;5.97;;
85188;SDS011;75559;49.132;8.922;2024-03-06T07:58:20;9.03;;;5.47;;
85188;SDS011;75559;49.132;8.922;2024-03-06T08:00:46;9.25;;;6.07;;
85188;SDS011;75559;49.132;8.922;2024-03-06T08:03:12;10.32;;;5.97;;
85188;SDS011;75559;49.132;8.922;2024-03-06T08:05:38;8.52;;;5.38;;
85188;SDS011;75559;49.132;8.922;2024-03-06T08:08:04;10.15;;;6.65;;
85188;SDS011;75559;49.132;8.922;2024-03-06T08:10:30;10.18;;;5.72;;
85188;SDS011;75559;49.132;8.922;2024-03-06T08:12:56;13.10;;;6.32;;
85188;SDS011;75559;49.132;8.922;2024-03-06T08:15:21;11.15;;;6.45;;
85188;SDS011;75559;49.132;8.922;2024-03-06T08:17:47;9.63;;;5.57;;
85188;SDS011;75559;49.132;8.922;2024-03-06T08:20:14;9.00;;;6.00;;
85188;SDS011;75559;49.132;8.922;2024-03-06T08:22:40;9.97;;;5.80;;
85188;SDS011;75559;49.132;8.922;2024-03-06T08:25:10;8.35;;;5.30;;
85188;SDS011;75559;49.132;8.922;2024-03-06T08:27:38;12.50;;;5.72;;
85188;SDS011;75559;49.132;8.922;2024-03-06T08:30:05;8.05;;;4.95;;
85188;SDS011;75559;49.132;8.922;2024-03-06T08:32:35;8.95;;;5.82;;
85188;SDS011;75559;49.132;8.922;2024-03-06T08:35:05;9.65;;;4.97;;
85188;SDS011;75559;49.132;8.922;2024-03-06T08:37:36;9.75;;;5.70;;
85188;SDS011;75559;49.132;8.922;2024-03-06T08:40:05;10.65;;;6.20;;
85188;SDS011;75559;49.132;8.922;2024-03-06T08:42:32;11.82;;;5.95;;
85188;SDS011;75559;49.132;8.922;2024-03-06T08:44:58;11.05;;;6.00;;
85188;SDS011;75559;49.132;8.922;2024-03-06T08:47:23;7.50;;;4.82;;
85188;SDS011;75559;49.132;8.922;2024-03-06T08:49:49;13.13;;;7.03;;
85188;SDS011;75559;49.132;8.922;2024-03-06T08:52:15;11.82;;;6.63;;
85188;SDS011;75559;49.132;8.922;2024-03-06T08:54:40;12.68;;;6.78;;
85188;SDS011;75559;49.132;8.922;2024-03-06T08:57:09;7.50;;;5.63;;
85188;SDS011;75559;49.132;8.922;2024-03-06T08:59:35;9.90;;;6.15;;
85188;SDS011;75559;49.132;8.922;2024-03-06T09:02:12;19.05;;;7.68;;
85188;SDS011;75559;49.132;8.922;2024-03-06T09:04:39;12.13;;;6.40;;
85188;SDS011;75559;49.132;8.922;2024-03-06T09:07:05;11.55;;;6.47;;
85188;SDS011;75559;49.132;8.922;2024-03-06T09:09:31;11.70;;;6.00;;
85188;SDS011;75559;49.132;8.922;2024-03-06T09:11:58;11.57;;;5.95;;
85188;SDS011;75559;49.132;8.922;2024-03-06T09:14:25;11.80;;;5.97;;
85188;SDS011;75559;49.132;8.922;2024-03-06T09:16:50;10.40;;;6.45;;
85188;SDS011;75559;49.132;8.922;2024-03-06T09:19:16;9.40;;;6.57;;
85188;SDS011;75559;49.132;8.922;2024-03-06T09:21:41;13.43;;;5.60;;
85188;SDS011;75559;49.132;8.922;2024-03-06T09:24:07;9.30;;;5.43;;
85188;SDS011;75559;49.132;8.922;2024-03-06T09:26:32;10.48;;;5.50;;
85188;SDS011;75559;49.132;8.922;2024-03-06T09:28:58;9.52;;;6.03;;
85188;SDS011;75559;49.132;8.922;2024-03-06T09:31:23;10.27;;;6.32;;
85188;SDS011;75559;49.132;8.922;2024-03-06T09:33:50;8.57;;;5.63;;
85188;SDS011;75559;49.132;8.922;2024-03-06T09:36:15;9.05;;;6.10;;
85188;SDS011;75559;49.132;8.922;2024-03-06T09:38:41;9.45;;;6.47;;
85188;SDS011;75559;49.132;8.922;2024-03-06T09:41:07;11.95;;;6.65;;
85188;SDS011;75559;49.132;8.922;2024-03-06T09:43:33;8.95;;;6.15;;
85188;SDS011;75559;49.132;8.922;2024-03-06T09:45:59;8.30;;;5.53;;
85188;SDS011;75559;49.132;8.922;2024-03-06T09:48:27;12.73;;;6.88;;
85188;SDS011;75559;49.132;8.922;2024-03-06T09:50:53;12.13;;;7.38;;
85188;SDS011;75559;49.132;8.922;2024-03-06T09:53:22;18.35;;;8.40;;
85188;SDS011;75559;49.132;8.922;2024-03-06T09:55:49;11.57;;;6.80;;
85188;SDS011;75559;49.132;8.922;2024-03-06T09:58:15;14.75;;;7.55;;
85188;SDS011;75559;49.132;8.922;2024-03-06T10:00:40;13.25;;;8.20;;
85188;SDS011;75559;49.132;8.922;2024-03-06T10:03:06;11.97;;;7.90;;
85188;SDS011;75559;49.132;8.922;2024-03-06T10:05:33;14.13;;;7.15;;
85188;SDS011;75559;49.132;8.922;2024-03-06T10:08:02;19.30;;;8.15;;
85188;SDS011;75559;49.132;8.922;2024-03-06T10:10:31;13.57;;;7.95;;
85188;SDS011;75559;49.132;8.922;2024-03-06T10:12:57;15.45;;;8.25;;
85188;SDS011;75559;49.132;8.922;2024-03-06T10:15:25;15.75;;;9.23;;
85188;SDS011;75559;49.132;8.922;2024-03-06T10:17:51;11.68;;;7.28;;
85188;SDS011;75559;49.132;8.922;2024-03-06T10:22:50;12.68;;;8.13;;
85188;SDS011;75559;49.132;8.922;2024-03-06T10:25:20;13.48;;;7.53;;
85188;SDS011;75559;49.132;8.922;2024-03-06T10:30:32;11.98;;;7.32;;
85188;SDS011;75559;49.132;8.922;2024-03-06T10:33:00;14.00;;;8.60;;
85188;SDS011;75559;49.132;8.922;2024-03-06T10:35:30;16.95;;;9.25;;
85188;SDS011;75559;49.132;8.922;2024-03-06T10:37:56;19.98;;;9.98;;
85188;SDS011;75559;49.132;8.922;2024-03-06T10:40:23;17.48;;;8.98;;
85188;SDS011;75559;49.132;8.922;2024-03-06T10:42:48;17.92;;;10.38;;
85188;SDS011;75559;49.132;8.922;2024-03-06T10:45:14;18.55;;;10.43;;
85188;SDS011;75559;49.132;8.922;2024-03-06T10:47:45;18.60;;;10.88;;
85188;SDS011;75559;49.132;8.922;2024-03-06T10:50:12;21.85;;;11.15;;
85188;SDS011;75559;49.132;8.922;2024-03-06T10:52:39;21.85;;;12.75;;
85188;SDS011;75559;49.132;8.922;2024-03-06T10:55:06;22.17;;;12.30;;
85188;SDS011;75559;49.132;8.922;2024-03-06T10:57:34;21.92;;;12.05;;
85188;SDS011;75559;49.132;8.922;2024-03-06T11:00:01;22.10;;;11.77;;
85188;SDS011;75559;49.132;8.922;2024-03-06T11:02:27;24.17;;;12.00;;
85188;SDS011;75559;49.132;8.922;2024-03-06T11:04:53;21.17;;;11.15;;
85188;SDS011;75559;49.132;8.922;2024-03-06T11:07:18;16.05;;;10.10;;
85188;SDS011;75559;49.132;8.922;2024-03-06T11:09:44;19.27;;;9.98;;
85188;SDS011;75559;49.132;8.922;2024-03-06T11:12:13;19.27;;;10.70;;
85188;SDS011;75559;49.132;8.922;2024-03-06T11:14:57;19.17;;;10.20;;
85188;SDS011;75559;49.132;8.922;2024-03-06T11:17:25;19.83;;;11.55;;
85188;SDS011;75559;49.132;8.922;2024-03-06T11:28:27;19.02;;;11.00;;
85188;SDS011;75559;49.132;8.922;2024-03-06T11:33:18;21.27;;;10.47;;
85188;SDS011;75559;49.132;8.922;2024-03-06T11:38:38;19.80;;;11.23;;
85188;SDS011;75559;49.132;8.922;2024-03-06T11:41:04;20.77;;;11.55;;
85188;SDS011;75559;49.132;8.922;2024-03-06T11:43:33;18.90;;;11.55;;
85188;SDS011;75559;49.132;8.922;2024-03-06T11:46:10;21.25;;;11.40;;
85188;SDS011;75559;49.132;8.922;2024-03-06T11:48:36;18.35;;;11.27;;
85188;SDS011;75559;49.132;8.922;2024-03-06T11:51:02;24.15;;;13.55;;
85188;SDS011;75559;49.132;8.922;2024-03-06T11:53:29;20.85;;;11.75;;
85188;SDS011;75559;49.132;8.922;2024-03-06T11:55:55;21.63;;;12.65;;
85188;SDS011;75559;49.132;8.922;2024-03-06T11:58:21;21.63;;;11.20;;
85188;SDS011;75559;49.132;8.922;2024-03-06T12:00:47;23.55;;;11.85;;
85188;SDS011;75559;49.132;8.922;2024-03-06T12:03:13;19.92;;;11.20;;
85188;SDS011;75559;49.132;8.922;2024-03-06T12:05:39;19.60;;;11.93;;
85188;SDS011;75559;49.132;8.922;2024-03-06T12:08:06;22.02;;;12.52;;
85188;SDS011;75559;49.132;8.922;2024-03-06T12:10:36;25.75;;;12.88;;
85188;SDS011;75559;49.132;8.922;2024-03-06T12:13:02;26.80;;;13.15;;
85188;SDS011;75559;49.132;8.922;2024-03-06T12:15:28;23.88;;;14.70;;
85188;SDS011;75559;49.132;8.922;2024-03-06T12:17:53;23.42;;;13.73;;
85188;SDS011;75559;49.132;8.922;2024-03-06T12:20:19;22.65;;;14.13;;
85188;SDS011;75559;49.132;8.922;2024-03-06T12:22:48;23.60;;;12.80;;
85188;SDS011;75559;49.132;8.922;2024-03-06T12:25:18;21.65;;;13.90;;
85188;SDS011;75559;49.132;8.922;2024-03-06T12:27:45;22.17;;;13.43;;
85188;SDS011;75559;49.132;8.922;2024-03-06T12:30:11;23.63;;;13.45;;
85188;SDS011;75559;49.132;8.922;2024-03-06T12:32:38;25.88;;;13.98;;
85188;SDS011;75559;49.132;8.922;2024-03-06T12:35:04;26.77;;;13.88;;
85188;SDS011;75559;49.132;8.922;2024-03-06T12:37:30;25.20;;;13.57;;
85188;SDS011;75559;49.132;8.922;2024-03-06T12:39:56;25.38;;;14.05;;
85188;SDS011;75559;49.132;8.922;2024-03-06T12:42:21;26.30;;;14.73;;
85188;SDS011;75559;49.132;8.922;2024-03-06T12:44:47;31.10;;;15.90;;
85188;SDS011;75559;49.132;8.922;2024-03-06T12:47:13;28.80;;;14.02;;
85188;SDS011;75559;49.132;8.922;2024-03-06T12:49:38;29.15;;;15.27;;
85188;SDS011;75559;49.132;8.922;2024-03-06T12:52:04;28.00;;;14.45;;
85188;SDS011;75559;49.132;8.922;2024-03-06T12:54:30;29.15;;;15.80;;
85188;SDS011;75559;49.132;8.922;2024-03-06T12:56:55;29.58;;;14.55;;
85188;SDS011;75559;49.132;8.922;2024-03-06T12:59:22;28.70;;;14.35;;
85188;SDS011;75559;49.132;8.922;2024-03-06T13:01:47;28.45;;;14.38;;
85188;SDS011;75559;49.132;8.922;2024-03-06T13:04:12;31.92;;;15.95;;
85188;SDS011;75559;49.132;8.922;2024-03-06T13:06:38;30.42;;;14.70;;
85188;SDS011;75559;49.132;8.922;2024-03-06T13:09:05;29.90;;;14.13;;
85188;SDS011;75559;49.132;8.922;2024-03-06T13:11:31;26.50;;;14.32;;
85188;SDS011;75559;49.132;8.922;2024-03-06T13:13:58;28.67;;;14.75;;
85188;SDS011;75559;49.132;8.922;2024-03-06T13:16:23;30.50;;;15.43;;
85188;SDS011;75559;49.132;8.922;2024-03-06T13:18:48;30.92;;;14.57;;
85188;SDS011;75559;49.132;8.922;2024-03-06T13:21:17;33.03;;;13.65;;
85188;SDS011;75559;49.132;8.922;2024-03-06T13:23:42;25.63;;;14.13;;
85188;SDS011;75559;49.132;8.922;2024-03-06T13:26:08;27.83;;;15.18;;
85188;SDS011;75559;49.132;8.922;2024-03-06T13:28:33;31.13;;;15.35;;
85188;SDS011;75559;49.132;8.922;2024-03-06T13:30:59;32.67;;;15.60;;
85188;SDS011;75559;49.132;8.922;2024-03-06T13:33:24;30.58;;;14.57;;
85188;SDS011;75559;49.132;8.922;2024-03-06T13:35:51;28.38;;;15.80;;
85188;SDS011;75559;49.132;8.922;2024-03-06T13:38:16;23.88;;;12.82;;
85188;SDS011;75559;49.132;8.922;2024-03-06T13:40:42;26.50;;;14.10;;
85188;SDS011;75559;49.132;8.922;2024-03-06T13:43:08;28.38;;;14.23;;
85188;SDS011;75559;49.132;8.922;2024-03-06T13:45:33;27.85;;;13.55;;
85188;SDS011;75559;49.132;8.922;2024-03-06T13:47:59;26.52;;;14.18;;
85188;SDS011;75559;49.132;8.922;2024-03-06T13:50:25;28.83;;;13.97;;
85188;SDS011;75559;49.132;8.922;2024-03-06T13:52:53;29.33;;;15.07;;
85188;SDS011;75559;49.132;8.922;2024-03-06T13:55:18;25.15;;;13.40;;
85188;SDS011;75559;49.132;8.922;2024-03-06T13:57:44;29.15;;;14.38;;
85188;SDS011;75559;49.132;8.922;2024-03-06T14:00:09;26.65;;;13.13;;
85188;SDS011;75559;49.132;8.922;2024-03-06T14:02:42;26.02;;;13.00;;
85188;SDS011;75559;49.132;8.922;2024-03-06T14:05:07;29.75;;;14.88;;
85188;SDS011;75559;49.132;8.922;2024-03-06T14:07:33;25.65;;;12.90;;
85188;SDS011;75559;49.132;8.922;2024-03-06T14:09:59;28.77;;;13.25;;
85188;SDS011;75559;49.132;8.922;2024-03-06T14:12:25;27.95;;;13.70;;
85188;SDS011;75559;49.132;8.922;2024-03-06T14:14:50;32.08;;;13.77;;
85188;SDS011;75559;49.132;8.922;2024-03-06T14:17:15;30.10;;;14.23;;
85188;SDS011;75559;49.132;8.922;2024-03-06T14:19:41;25.57;;;13.40;;
85188;SDS011;75559;49.132;8.922;2024-03-06T14:22:07;24.63;;;13.20;;
85188;SDS011;75559;49.132;8.922;2024-03-06T14:24:33;25.02;;;13.00;;
85188;SDS011;75559;49.132;8.922;2024-03-06T14:26:59;23.35;;;12.60;;
85188;SDS011;75559;49.132;8.922;2024-03-06T14:29:24;25.75;;;12.95;;
85188;SDS011;75559;49.132;8.922;2024-03-06T14:31:52;33.72;;;14.27;;
85188;SDS011;75559;49.132;8.922;2024-03-06T14:34:17;24.73;;;12.35;;
85188;SDS011;75559;49.132;8.922;2024-03-06T14:36:42;24.35;;;13.68;;
85188;SDS011;75559;49.132;8.922;2024-03-06T14:39:08;25.50;;;13.90;;
85188;SDS011;75559;49.132;8.922;2024-03-06T14:41:35;31.88;;;13.70;;
85188;SDS011;75559;49.132;8.922;2024-03-06T14:44:01;28.33;;;14.57;;
85188;SDS011;75559;49.132;8.922;2024-03-06T14:46:26;29.58;;;14.23;;
85188;SDS011;75559;49.132;8.922;2024-03-06T14:48:53;28.08;;;13.38;;